Time;durP1;ratioP1;P1;durP2;ratioP2;P2;SDS_P1;SDS_P2;PMS_P1;PMS_P2;Temp;Humidity;BMP_temperature;BMP_pressure;BME280_temperature;BME280_humidity;BME280_pressure;Samples;Min_cycle;Max_cycle;Signal;HPM_P1;HPM_P2
2023/02/20 00:02:14;;;;;;;43.63;20.88;;;;;;;-4.27;64.17;97753.88;5039950;28;20360;-46
2023/02/20 00:04:39;;;;;;;42.35;20.25;;;;;;;-4.18;63.94;97760.38;5054302;28;20451;-46
2023/02/20 00:07:05;;;;;;;40.75;20.65;;;;;;;-4.20;63.93;97754.38;5055898;28;20036;-44
2023/02/20 00:09:30;;;;;;;39.35;19.85;;;;;;;-4.12;63.75;97746.09;5043252;28;20086;-46
2023/02/20 00:11:55;;;;;;;39.88;19.45;;;;;;;-4.29;64.26;97750.50;5036495;28;20033;-48
2023/02/20 00:14:22;;;;;;;38.83;19.80;;;;;;;-4.33;64.37;97754.19;5036911;28;20034;-46
2023/02/20 00:16:47;;;;;;;38.60;18.90;;;;;;;-4.37;64.21;97748.28;5036757;28;20047;-46
2023/02/20 00:19:13;;;;;;;39.35;20.08;;;;;;;-4.32;64.54;97751.47;5041031;28;20116;-46
2023/02/20 00:21:46;;;;;;;39.65;19.25;;;;;;;-4.29;63.96;97744.41;5056120;28;20037;-45
2023/02/20 00:24:12;;;;;;;39.40;19.48;;;;;;;-4.32;63.98;97761.09;5055073;28;20112;-47
2023/02/20 00:26:38;;;;;;;41.28;21.42;;;;;;;-4.39;64.18;97744.91;5055353;28;20392;-45
2023/02/20 00:29:03;;;;;;;43.45;20.75;;;;;;;-4.36;64.16;97754.34;5053773;28;20124;-47
2023/02/20 00:31:29;;;;;;;39.53;20.05;;;;;;;-4.40;63.92;97753.69;5055980;28;20112;-54
2023/02/20 00:33:54;;;;;;;40.88;19.95;;;;;;;-4.42;64.42;97763.38;5038040;28;20141;-45
2023/02/20 00:36:20;;;;;;;41.65;20.35;;;;;;;-4.39;63.94;97751.88;5047223;28;20112;-46
2023/02/20 00:38:46;;;;;;;45.63;21.95;;;;;;;-4.60;64.19;97725.97;5040386;28;20029;-45
2023/02/20 00:41:13;;;;;;;40.80;20.13;;;;;;;-4.35;64.04;97759.50;5055574;28;20097;-47
2023/02/20 00:43:40;;;;;;;43.45;21.30;;;;;;;-4.67;63.90;97714.16;5054941;28;20036;-46
2023/02/20 00:46:05;;;;;;;40.72;19.85;;;;;;;-4.44;64.19;97754.75;5041773;28;20511;-49
2023/02/20 00:48:31;;;;;;;39.50;20.85;;;;;;;-4.54;64.78;97736.13;5035678;28;20029;-46
2023/02/20 00:50:56;;;;;;;40.63;20.13;;;;;;;-4.52;64.69;97744.72;5035777;28;20471;-49
2023/02/20 00:53:22;;;;;;;39.42;19.25;;;;;;;-4.52;64.33;97744.72;5035184;28;20030;-46
2023/02/20 00:55:47;;;;;;;41.80;21.23;;;;;;;-4.51;64.92;97745.53;5034818;28;20037;-46
2023/02/20 00:58:13;;;;;;;43.28;21.10;;;;;;;-4.49;64.31;97741.06;5036075;28;20030;-48
2023/02/20 01:00:38;;;;;;;38.88;20.58;;;;;;;-4.50;64.66;97742.88;5055560;28;20060;-47
2023/02/20 01:03:03;;;;;;;38.65;19.92;;;;;;;-4.48;64.63;97748.00;5054721;28;20052;-48
2023/02/20 01:05:29;;;;;;;37.47;19.20;;;;;;;-4.47;64.69;97741.84;5054217;28;20041;-50
2023/02/20 01:07:54;;;;;;;36.17;19.30;;;;;;;-4.45;64.62;97744.38;5053507;28;20024;-47
2023/02/20 01:10:20;;;;;;;38.67;19.23;;;;;;;-4.28;64.25;97736.50;5036334;28;20033;-46
2023/02/20 01:12:45;;;;;;;38.45;19.67;;;;;;;-4.32;63.94;97740.22;5035658;28;20026;-49
2023/02/20 01:15:13;;;;;;;34.85;19.77;;;;;;;-4.41;64.00;97735.47;5033519;28;20041;-48
2023/02/20 01:17:38;;;;;;;39.10;20.00;;;;;;;-4.25;63.24;97744.16;5036873;28;20028;-46
2023/02/20 01:20:04;;;;;;;37.35;18.92;;;;;;;-4.44;63.75;97740.84;5036618;28;20041;-48
2023/02/20 01:22:30;;;;;;;38.78;18.60;;;;;;;-4.41;63.25;97741.53;5034699;28;20120;-46
2023/02/20 01:24:55;;;;;;;36.88;18.65;;;;;;;-4.44;63.65;97744.31;5034643;28;20116;-46
2023/02/20 01:27:21;;;;;;;41.22;19.45;;;;;;;-4.81;64.02;97727.94;5034748;28;20060;-46
2023/02/20 01:29:46;;;;;;;36.53;15.90;;;;;;;-4.63;64.09;97750.50;5034354;28;20091;-46
2023/02/20 01:32:12;;;;;;;36.63;18.83;;;;;;;-4.63;64.30;97762.69;5035510;28;20084;-48
2023/02/20 01:34:38;;;;;;;37.10;18.55;;;;;;;-4.71;64.54;97754.44;5036039;28;20049;-45
2023/02/20 01:37:03;;;;;;;33.65;17.55;;;;;;;-4.68;64.43;97752.50;5054077;28;20059;-47
2023/02/20 01:39:30;;;;;;;39.00;19.10;;;;;;;-4.72;64.67;97748.34;5041714;28;20466;-47
2023/02/20 01:42:05;;;;;;;30.05;14.05;;;;;;;-4.34;63.18;97752.47;5054595;28;20028;-46
2023/02/20 01:44:35;;;;;;;34.88;16.60;;;;;;;-4.40;62.75;97752.81;5036892;28;20025;-45
2023/02/20 01:47:08;;;;;;;34.13;17.30;;;;;;;-4.50;63.15;97750.69;5034485;28;20060;-46
2023/02/20 01:49:55;;;;;;;31.98;16.50;;;;;;;-4.57;63.64;97757.19;5050848;28;20090;-49
2023/02/20 01:52:30;;;;;;;41.85;18.48;;;;;;;-4.59;63.76;97764.22;5054079;28;20029;-46
2023/02/20 01:55:25;;;;;;;31.95;14.52;;;;;;;-4.50;62.78;97758.53;5053989;28;20079;-46
2023/02/20 01:57:56;;;;;;;33.75;16.83;;;;;;;-4.62;62.98;97767.00;5050571;28;20034;-46
2023/02/20 02:00:25;;;;;;;37.00;18.13;;;;;;;-4.73;63.04;97756.28;5037955;28;20095;-57
2023/02/20 02:02:57;;;;;;;34.40;18.40;;;;;;;-4.73;63.85;97751.06;5036749;28;20021;-44
2023/02/20 02:05:23;;;;;;;38.97;18.77;;;;;;;-4.83;63.94;97766.34;5052834;28;20478;-47
2023/02/20 02:07:49;;;;;;;37.15;17.35;;;;;;;-4.76;63.74;97776.41;5052146;28;20116;-46
2023/02/20 02:10:25;;;;;;;37.47;18.35;;;;;;;-4.68;63.74;97777.78;5035929;28;20465;-44
2023/02/20 02:12:52;;;;;;;31.40;15.77;;;;;;;-4.77;63.56;97772.09;5035128;28;20041;-45
2023/02/20 02:15:20;;;;;;;36.25;18.48;;;;;;;-4.82;64.47;97768.91;5054041;28;20033;-47
2023/02/20 02:18:21;;;;;;;35.45;16.77;;;;;;;-4.76;64.13;97779.00;5050154;28;20091;-46
2023/02/20 02:21:10;;;;;;;32.05;16.83;;;;;;;-4.77;63.55;97746.00;5033269;28;20052;-47
2023/02/20 02:23:51;;;;;;;31.63;15.80;;;;;;;-4.64;64.13;97772.31;5034102;28;20068;-47
2023/02/20 02:26:45;;;;;;;33.33;16.55;;;;;;;-4.66;63.98;97779.38;5033527;28;20030;-46
2023/02/20 02:29:29;;;;;;;32.47;16.35;;;;;;;-4.58;63.70;97776.38;5046262;28;20048;-49
2023/02/20 02:31:57;;;;;;;32.95;16.73;;;;;;;-4.69;63.40;97781.31;5051218;28;20105;-46
2023/02/20 02:34:38;;;;;;;32.63;15.98;;;;;;;-4.68;63.50;97780.38;5053345;28;20438;-49
2023/02/20 02:37:19;;;;;;;25.40;12.43;;;;;;;-4.54;63.54;97779.66;5052068;28;20128;-47
2023/02/20 02:40:00;;;;;;;31.27;15.93;;;;;;;-4.46;62.52;97795.81;5051083;28;20418;-48
2023/02/20 02:43:01;;;;;;;34.03;15.85;;;;;;;-4.70;63.29;97793.53;5051463;28;20064;-45
2023/02/20 02:45:53;;;;;;;30.30;16.23;;;;;;;-4.67;63.45;97798.59;5047378;28;20025;-46
2023/02/20 02:48:31;;;;;;;29.75;14.75;;;;;;;-4.79;63.39;97794.84;5052093;28;20470;-47
2023/02/20 02:51:14;;;;;;;20.45;11.00;;;;;;;-4.70;63.75;97792.66;5052397;28;20202;-47
2023/02/20 02:53:40;;;;;;;30.70;14.52;;;;;;;-4.50;62.34;97779.44;5052831;28;20112;-46
2023/02/20 02:56:22;;;;;;;23.83;11.13;;;;;;;-4.62;62.41;97760.03;5053555;28;20132;-47
2023/02/20 02:58:49;;;;;;;32.67;14.48;;;;;;;-4.55;61.91;97796.25;5048074;28;20030;-45
2023/02/20 03:01:19;;;;;;;32.88;15.30;;;;;;;-4.68;62.57;97786.47;5032632;28;20460;-48
2023/02/20 03:03:48;;;;;;;32.58;13.38;;;;;;;-4.76;62.59;97799.91;5033344;28;20045;-44
2023/02/20 03:06:22;;;;;;;29.63;15.25;;;;;;;-4.99;63.43;97797.59;5032330;28;20041;-47
2023/02/20 03:08:56;;;;;;;30.40;13.65;;;;;;;-5.08;63.30;97784.06;5046242;28;20033;-44
2023/02/20 03:11:23;;;;;;;29.50;14.65;;;;;;;-5.12;63.38;97795.59;5036799;28;20441;-47
2023/02/20 03:16:47;;;;;;;26.05;14.23;;;;;;;-5.11;63.51;97802.50;5032292;28;20091;-52
2023/02/20 03:19:16;;;;;;;18.90;10.00;;;;;;;-4.94;62.91;97796.47;5032517;28;20045;-49
2023/02/20 03:21:47;;;;;;;29.77;14.38;;;;;;;-5.12;63.72;97795.59;5035220;28;20305;-47
2023/02/20 03:24:16;;;;;;;31.55;14.13;;;;;;;-5.08;62.89;97791.91;5052402;28;20064;-45
2023/02/20 03:26:43;;;;;;;30.08;13.73;;;;;;;-5.29;63.48;97795.59;5051675;28;20363;-47
2023/02/20 03:29:18;;;;;;;26.27;13.75;;;;;;;-5.10;62.70;97791.13;5034007;28;20033;-48
2023/02/20 03:31:49;;;;;;;29.90;13.85;;;;;;;-5.09;62.84;97798.03;5033480;28;20116;-49
2023/02/20 03:45:41;;;;;;;25.02;12.65;;;;;;;-5.29;63.51;97804.25;5051994;28;20028;-45
2023/02/20 03:48:14;;;;;;;22.10;9.30;;;;;;;-5.10;63.06;97812.00;5039217;28;20558;-46
2023/02/20 03:50:40;;;;;;;27.42;13.50;;;;;;;-5.16;63.39;97803.66;5044932;28;20450;-46
2023/02/20 03:53:05;;;;;;;29.08;14.77;;;;;;;-5.14;62.99;97801.81;5032545;28;20029;-47
2023/02/20 03:55:31;;;;;;;27.23;13.57;;;;;;;-5.23;63.77;97798.72;5031791;28;20034;-48
2023/02/20 03:58:01;;;;;;;26.73;13.45;;;;;;;-5.12;63.72;97806.03;5031707;28;20082;-48
2023/02/20 04:00:31;;;;;;;25.10;14.10;;;;;;;-5.11;63.70;97805.09;5032254;28;20041;-46
2023/02/20 04:03:02;;;;;;;27.85;13.68;;;;;;;-5.06;64.07;97803.13;5032064;28;20080;-48
2023/02/20 04:05:33;;;;;;;28.38;13.88;;;;;;;-5.12;63.29;97787.75;5031656;28;20490;-53
2023/02/20 04:08:11;;;;;;;17.02;7.97;;;;;;;-4.74;62.62;97798.97;5043327;28;20091;-47
2023/02/20 04:10:45;;;;;;;26.58;13.63;;;;;;;-4.78;62.44;97816.56;5040674;28;20037;-47
2023/02/20 04:13:13;;;;;;;24.48;12.40;;;;;;;-4.87;62.66;97817.03;5032316;28;20105;-44
2023/02/20 04:15:40;;;;;;;25.42;12.05;;;;;;;-4.87;62.39;97811.81;5039807;28;20100;-50
2023/02/20 04:18:12;;;;;;;26.70;13.70;;;;;;;-4.99;62.42;97814.09;5033223;28;20053;-51
2023/02/20 04:20:38;;;;;;;28.63;13.90;;;;;;;-5.00;62.24;97816.78;5032506;28;20138;-45
2023/02/20 04:23:12;;;;;;;27.95;13.20;;;;;;;-5.11;63.15;97810.31;5045792;28;20212;-47
2023/02/20 04:25:45;;;;;;;26.42;12.60;;;;;;;-5.15;63.28;97808.78;5051358;28;20064;-46
2023/02/20 04:28:12;;;;;;;25.40;12.85;;;;;;;-5.20;63.28;97808.19;5036877;28;20069;-47
2023/02/20 04:30:38;;;;;;;30.27;14.27;;;;;;;-5.22;63.21;97803.03;5037023;28;20033;-49
2023/02/20 04:33:03;;;;;;;26.00;12.55;;;;;;;-5.14;63.13;97794.81;5050907;28;20040;-49
2023/02/20 04:35:29;;;;;;;23.85;12.73;;;;;;;-5.18;63.10;97801.13;5050845;28;20041;-47
2023/02/20 04:37:55;;;;;;;27.15;13.98;;;;;;;-5.11;63.51;97804.28;5051913;28;20040;-45
2023/02/20 04:40:22;;;;;;;26.10;13.52;;;;;;;-5.08;63.47;97799.72;5050148;28;20170;-46
2023/02/20 04:42:47;;;;;;;25.40;13.00;;;;;;;-5.09;63.46;97805.88;5037566;28;20036;-48
2023/02/20 04:45:13;;;;;;;30.52;14.35;;;;;;;-5.01;62.97;97805.50;5031597;28;20033;-54
2023/02/20 04:47:39;;;;;;;28.35;12.88;;;;;;;-5.06;63.63;97802.28;5043832;28;20033;-44
2023/02/20 04:50:04;;;;;;;23.70;11.48;;;;;;;-4.90;63.28;97825.84;5049929;28;20037;-45
2023/02/20 04:52:30;;;;;;;25.42;12.95;;;;;;;-4.90;62.85;97823.22;5045761;28;20044;-46
2023/02/20 04:54:56;;;;;;;26.95;13.27;;;;;;;-4.90;62.92;97820.63;5048237;28;20128;-45
2023/02/20 04:57:21;;;;;;;27.08;13.65;;;;;;;-4.86;61.91;97809.09;5035355;28;20040;-48
2023/02/20 04:59:47;;;;;;;26.83;14.25;;;;;;;-4.80;62.41;97826.22;5035402;28;20433;-47
2023/02/20 05:02:13;;;;;;;29.45;14.35;;;;;;;-4.96;62.17;97832.22;5035244;28;20529;-48
2023/02/20 05:04:39;;;;;;;22.83;10.23;;;;;;;-5.10;62.20;97791.13;5034819;28;20025;-49
2023/02/20 05:07:04;;;;;;;28.70;14.68;;;;;;;-4.77;61.59;97828.69;5043230;28;20041;-48
2023/02/20 05:09:31;;;;;;;22.73;11.38;;;;;;;-4.92;62.32;97832.91;5053122;28;20091;-51
2023/02/20 05:11:56;;;;;;;25.90;12.15;;;;;;;-4.95;62.25;97828.69;5037251;28;20087;-47
2023/02/20 05:14:22;;;;;;;29.13;14.45;;;;;;;-5.01;62.33;97831.59;5045740;28;20033;-46
2023/02/20 05:16:50;;;;;;;29.25;14.60;;;;;;;-5.20;63.34;97797.75;5034883;28;20037;-47
2023/02/20 05:19:16;;;;;;;34.95;15.25;;;;;;;-4.98;62.87;97828.00;5049717;28;20104;-54
2023/02/20 05:24:29;;;;;;;29.08;14.85;;;;;;;-4.89;61.88;97819.69;5053694;28;20040;-48
2023/02/20 05:26:55;;;;;;;30.55;15.88;;;;;;;-4.85;62.51;97831.69;5034187;28;20041;-46
2023/02/20 05:29:21;;;;;;;29.70;14.82;;;;;;;-4.98;62.59;97807.94;5034545;28;20132;-48
2023/02/20 05:31:46;;;;;;;31.20;15.88;;;;;;;-4.84;62.58;97830.75;5035855;28;20468;-48
2023/02/20 05:34:12;;;;;;;31.38;16.15;;;;;;;-4.77;62.12;97837.38;5034134;28;20125;-47
2023/02/20 05:36:38;;;;;;;29.00;15.68;;;;;;;-4.75;61.62;97839.88;5036376;28;20042;-46
2023/02/20 05:39:04;;;;;;;33.75;16.25;;;;;;;-4.74;61.85;97838.13;5054650;28;20125;-50
2023/02/20 05:41:30;;;;;;;31.65;15.57;;;;;;;-4.81;62.24;97835.84;5053772;28;20028;-53
2023/02/20 05:43:56;;;;;;;31.67;15.52;;;;;;;-4.79;61.97;97836.63;5053456;28;20110;-52
2023/02/20 05:46:23;;;;;;;28.33;14.88;;;;;;;-4.78;61.63;97835.69;5051805;28;20024;-50
2023/02/20 05:48:49;;;;;;;30.95;14.98;;;;;;;-4.54;61.29;97845.81;5050586;28;20091;-50
2023/02/20 05:51:20;;;;;;;29.17;14.95;;;;;;;-4.82;61.73;97847.22;5033284;28;20440;-49
2023/02/20 05:53:45;;;;;;;26.13;12.38;;;;;;;-4.74;61.81;97838.13;5034302;28;20056;-48
2023/02/20 05:56:11;;;;;;;32.47;16.02;;;;;;;-4.62;61.06;97846.19;5044557;28;20444;-50
2023/02/20 05:58:36;;;;;;;30.17;16.23;;;;;;;-5.01;62.23;97820.31;5034757;28;20030;-53
2023/02/20 06:01:01;;;;;;;32.25;15.75;;;;;;;-4.86;62.35;97853.47;5033328;28;20029;-48
2023/02/20 06:03:27;;;;;;;30.20;14.55;;;;;;;-4.64;61.41;97855.03;5052288;28;20026;-51
2023/02/20 06:05:55;;;;;;;31.08;16.40;;;;;;;-4.76;61.44;97848.66;5035357;28;20032;-51
2023/02/20 06:08:20;;;;;;;26.13;14.65;;;;;;;-4.82;61.88;97849.81;5033440;28;20033;-56
2023/02/20 06:10:46;;;;;;;32.70;15.55;;;;;;;-4.74;62.99;97848.59;5037555;28;20432;-47
2023/02/20 06:13:11;;;;;;;27.25;14.82;;;;;;;-4.66;62.44;97856.88;5053931;28;20039;-47
2023/02/20 06:15:37;;;;;;;31.10;14.68;;;;;;;-4.44;61.47;97855.78;5042453;28;20026;-58
2023/02/20 06:18:03;;;;;;;29.05;15.23;;;;;;;-4.47;61.18;97859.38;5034015;28;20444;-51
2023/02/20 06:20:28;;;;;;;28.45;14.15;;;;;;;-4.47;60.95;97857.63;5034908;28;20028;-52
2023/02/20 06:22:53;;;;;;;31.23;16.17;;;;;;;-4.50;60.98;97872.59;5034864;28;20117;-50
2023/02/20 06:25:19;;;;;;;30.25;14.73;;;;;;;-4.47;61.29;97878.53;5034188;28;20116;-53
2023/02/20 06:27:44;;;;;;;11.82;5.47;;;;;;;-4.26;61.11;97878.34;5033762;28;20029;-51
2023/02/20 06:30:10;;;;;;;28.92;14.40;;;;;;;-4.26;60.11;97870.53;5034351;28;20487;-50
2023/02/20 06:32:36;;;;;;;32.20;15.90;;;;;;;-4.34;60.57;97885.72;5032486;28;20092;-49
2023/02/20 06:35:02;;;;;;;26.45;14.15;;;;;;;-4.24;60.23;97878.25;5034864;28;20439;-50
2023/02/20 06:37:28;;;;;;;29.02;13.95;;;;;;;-4.11;58.93;97861.03;5052063;28;20094;-46
2023/02/20 06:39:54;;;;;;;25.50;14.00;;;;;;;-4.13;59.54;97875.94;5036761;28;20024;-46
2023/02/20 06:42:20;;;;;;;26.13;13.30;;;;;;;-4.05;59.51;97871.16;5041117;28;20034;-56
2023/02/20 06:44:45;;;;;;;29.00;13.77;;;;;;;-4.00;58.77;97868.31;5034728;28;20099;-50
2023/02/20 06:47:11;;;;;;;29.42;14.82;;;;;;;-4.06;59.01;97874.69;5032966;28;20120;-50
2023/02/20 06:49:37;;;;;;;23.38;12.38;;;;;;;-3.85;57.76;97877.09;5033088;28;20113;-47
2023/02/20 06:52:06;;;;;;;25.63;13.32;;;;;;;-4.00;57.72;97884.00;5033155;28;20112;-50
2023/02/20 06:54:33;;;;;;;25.52;13.15;;;;;;;-4.07;58.03;97882.63;5041576;28;20037;-52
2023/02/20 06:56:59;;;;;;;26.98;13.55;;;;;;;-4.04;57.67;97887.69;5045269;28;20128;-51
2023/02/20 06:59:24;;;;;;;25.48;13.95;;;;;;;-4.13;58.94;97882.94;5052689;28;20512;-52
2023/02/20 07:01:50;;;;;;;25.27;11.60;;;;;;;-3.81;57.75;97864.72;5037956;28;20047;-53
2023/02/20 07:04:19;;;;;;;25.13;14.05;;;;;;;-3.82;57.58;97881.34;5051664;28;20044;-52
2023/02/20 07:06:45;;;;;;;26.13;13.85;;;;;;;-3.80;57.36;97895.19;5041028;28;20348;-56
2023/02/20 07:09:11;;;;;;;26.42;13.80;;;;;;;-3.75;57.68;97885.31;5052291;28;20312;-53
2023/02/20 07:11:36;;;;;;;29.35;15.55;;;;;;;-3.70;57.06;97872.81;5043896;28;20064;-51
2023/02/20 07:14:02;;;;;;;27.23;14.30;;;;;;;-3.63;57.03;97874.16;5038603;28;20037;-52
2023/02/20 07:16:27;;;;;;;26.23;14.07;;;;;;;-3.47;57.58;97874.22;5031876;28;20124;-53
2023/02/20 07:18:53;;;;;;;21.92;11.60;;;;;;;-3.13;56.05;97868.88;5031954;28;20052;-55
2023/02/20 07:21:18;;;;;;;21.80;12.15;;;;;;;-3.13;56.61;97871.50;5031830;28;20360;-52
2023/02/20 07:23:44;;;;;;;27.08;13.38;;;;;;;-2.96;55.59;97874.91;5031940;28;20338;-52
2023/02/20 07:26:22;;;;;;;26.77;13.82;;;;;;;-2.91;56.10;97880.72;5038038;28;20103;-52
2023/02/20 07:28:48;;;;;;;27.00;14.48;;;;;;;-2.92;55.90;97882.53;5051940;28;20028;-52
2023/02/20 07:31:13;;;;;;;29.67;15.23;;;;;;;-3.06;55.87;97887.69;5043846;28;20713;-55
2023/02/20 07:33:41;;;;;;;25.80;14.07;;;;;;;-3.05;56.06;97887.59;5052234;28;20028;-56
2023/02/20 07:36:08;;;;;;;29.65;16.30;;;;;;;-2.95;55.68;97889.69;5038483;28;20136;-53
2023/02/20 07:38:33;;;;;;;33.90;17.25;;;;;;;-3.09;56.18;97893.94;5031275;28;20432;-53
2023/02/20 07:40:59;;;;;;;32.95;16.98;;;;;;;-3.17;57.45;97880.44;5035843;28;20097;-54
2023/02/20 07:43:24;;;;;;;34.28;17.65;;;;;;;-3.06;57.02;97885.06;5032447;28;20025;-53
2023/02/20 07:45:50;;;;;;;36.08;17.38;;;;;;;-2.92;57.23;97890.38;5031701;28;20041;-54
2023/02/20 07:48:15;;;;;;;34.92;18.00;;;;;;;-2.84;55.62;97887.31;5040869;28;20112;-61
2023/02/20 07:50:41;;;;;;;35.30;18.10;;;;;;;-3.01;56.67;97897.91;5046381;28;20399;-62
2023/02/20 07:53:06;;;;;;;35.53;18.17;;;;;;;-3.09;57.29;97888.72;5032912;28;20112;-53
2023/02/20 07:55:32;;;;;;;41.88;17.65;;;;;;;-2.99;56.90;97899.53;5033471;28;20102;-53
2023/02/20 07:57:57;;;;;;;35.72;17.75;;;;;;;-3.18;57.17;97900.53;5045152;28;20025;-61
2023/02/20 08:00:25;;;;;;;35.88;16.98;;;;;;;-3.27;57.20;97901.03;5048534;28;20356;-57
2023/02/20 08:02:50;;;;;;;32.50;16.83;;;;;;;-3.28;57.21;97903.75;5042382;28;20490;-56
2023/02/20 08:05:16;;;;;;;35.42;17.08;;;;;;;-3.13;57.08;97908.16;5034302;28;20109;-53
2023/02/20 08:07:46;;;;;;;32.15;16.05;;;;;;;-3.18;56.57;97904.91;5031900;28;20065;-53
2023/02/20 08:10:13;;;;;;;37.70;18.00;;;;;;;-3.30;57.25;97910.84;5036184;28;20048;-53
2023/02/20 08:12:39;;;;;;;34.47;18.25;;;;;;;-3.24;57.76;97918.34;5050604;28;20032;-58
2023/02/20 08:15:05;;;;;;;35.58;17.55;;;;;;;-3.13;56.61;97915.13;5051665;28;20524;-56
2023/02/20 08:17:30;;;;;;;35.65;17.42;;;;;;;-2.95;55.61;97915.88;5051222;28;20037;-54
2023/02/20 08:19:56;;;;;;;34.28;18.50;;;;;;;-3.03;55.55;97914.53;5049504;28;20029;-49
2023/02/20 08:22:21;;;;;;;35.47;18.20;;;;;;;-2.99;56.52;97914.38;5051930;28;20033;-53
2023/02/20 08:24:47;;;;;;;34.30;18.13;;;;;;;-2.81;55.18;97918.56;5052913;28;20115;-55
2023/02/20 08:27:12;;;;;;;36.13;17.60;;;;;;;-2.60;54.56;97902.56;5054297;28;20151;-50
2023/02/20 08:29:38;;;;;;;25.92;13.45;;;;;;;-2.12;53.58;97912.88;5054672;28;20032;-54
2023/02/20 08:32:03;;;;;;;35.13;16.30;;;;;;;-1.92;52.89;97905.59;5054540;28;20032;-52
2023/02/20 08:34:29;;;;;;;31.67;15.68;;;;;;;-1.84;52.59;97900.72;5054171;28;20479;-51
2023/02/20 08:36:54;;;;;;;29.65;15.43;;;;;;;-1.56;52.15;97911.31;5048323;28;20156;-57
2023/02/20 08:39:20;;;;;;;32.08;16.38;;;;;;;-1.23;51.29;97923.25;5048496;28;20073;-51
2023/02/20 08:41:46;;;;;;;29.98;15.13;;;;;;;-0.96;50.35;97917.22;5040746;28;20063;-55
2023/02/20 08:44:13;;;;;;;30.77;15.80;;;;;;;-0.70;49.86;97925.19;5048933;28;20036;-51
2023/02/20 08:46:49;;;;;;;29.98;15.35;;;;;;;-0.64;50.75;97930.88;5055262;28;20024;-51
2023/02/20 08:49:16;;;;;;;28.35;15.30;;;;;;;-0.74;49.73;97930.63;5053798;28;20041;-53
2023/02/20 08:51:44;;;;;;;28.92;15.32;;;;;;;-0.66;50.13;97930.13;5054973;28;20336;-54
2023/02/20 08:54:10;;;;;;;25.35;14.23;;;;;;;-0.54;49.84;97925.84;5054755;28;20158;-55
2023/02/20 08:56:36;;;;;;;26.75;14.63;;;;;;;-0.51;49.20;97930.91;5054525;28;20071;-51
2023/02/20 08:59:01;;;;;;;26.50;14.73;;;;;;;-0.34;48.48;97931.59;5054839;28;20108;-54
2023/02/20 09:01:27;;;;;;;27.05;14.88;;;;;;;-0.30;48.53;97922.56;5054482;28;20435;-57
2023/02/20 09:03:52;;;;;;;26.25;14.38;;;;;;;-0.20;48.78;97918.38;5047743;28;20033;-53
2023/02/20 09:06:17;;;;;;;24.88;14.77;;;;;;;-0.20;48.21;97923.63;5034779;28;20037;-58
2023/02/20 09:08:43;;;;;;;27.42;14.52;;;;;;;-0.24;48.11;97922.16;5035000;28;20026;-56
2023/02/20 09:11:10;;;;;;;24.83;14.07;;;;;;;-0.16;48.04;97916.38;5034531;28;20136;-56
2023/02/20 09:13:42;;;;;;;25.83;14.93;;;;;;;-0.24;48.43;97916.91;5051941;28;20033;-54
2023/02/20 09:16:08;;;;;;;30.85;14.73;;;;;;;-0.38;49.29;97911.72;5054816;28;20041;-54
2023/02/20 09:18:33;;;;;;;27.17;15.43;;;;;;;-0.37;48.30;97910.75;5048861;28;20036;-55
2023/02/20 09:20:58;;;;;;;26.45;15.32;;;;;;;-0.42;48.04;97918.13;5034406;28;20033;-51
2023/02/20 09:23:26;;;;;;;28.02;15.18;;;;;;;-0.44;49.06;97923.47;5034567;28;20029;-50
2023/02/20 09:25:52;;;;;;;29.58;16.13;;;;;;;-0.29;48.61;97926.88;5034396;28;20033;-53
2023/02/20 09:28:18;;;;;;;28.67;16.10;;;;;;;-0.17;47.71;97933.09;5048154;28;20037;-53
2023/02/20 09:30:43;;;;;;;28.35;14.88;;;;;;;-0.26;47.25;97933.72;5053591;28;20347;-56
2023/02/20 09:33:09;;;;;;;31.33;14.20;;;;;;;-0.61;47.53;97935.09;5042075;28;20041;-55
2023/02/20 09:35:35;;;;;;;29.15;14.35;;;;;;;-0.79;49.04;97940.59;5053043;28;20176;-57
2023/02/20 09:38:01;;;;;;;29.35;15.60;;;;;;;-0.95;48.77;97934.66;5054513;28;20167;-52
2023/02/20 09:40:29;;;;;;;29.10;16.23;;;;;;;-1.43;49.01;97900.88;5054521;28;20372;-58
2023/02/20 09:43:04;;;;;;;29.15;15.45;;;;;;;-1.44;50.42;97928.94;5053615;28;20048;-57
2023/02/20 09:45:33;;;;;;;32.28;16.45;;;;;;;-1.62;50.08;97907.28;5052626;28;20364;-55
2023/02/20 09:47:58;;;;;;;36.35;17.60;;;;;;;-1.48;50.12;97937.91;5054651;28;20040;-56
2023/02/20 09:50:40;;;;;;;35.45;17.02;;;;;;;-1.55;50.85;97919.09;5053879;28;20159;-53
2023/02/20 09:53:20;;;;;;;30.45;15.65;;;;;;;-1.59;50.73;97925.44;5052810;28;20029;-51
2023/02/20 09:55:47;;;;;;;32.25;16.63;;;;;;;-1.96;50.74;97886.56;5053101;28;20025;-56
2023/02/20 09:58:36;;;;;;;32.22;16.65;;;;;;;-1.75;51.65;97921.16;5052196;28;20090;-58
2023/02/20 10:01:03;;;;;;;33.85;17.25;;;;;;;-1.66;50.71;97917.13;5037513;28;20120;-59
2023/02/20 10:03:36;;;;;;;32.13;16.58;;;;;;;-1.54;50.45;97925.19;5034020;28;20037;-63
2023/02/20 10:06:08;;;;;;;30.02;15.60;;;;;;;-1.50;50.43;97921.41;5036470;28;20100;-62
2023/02/20 10:08:34;;;;;;;29.38;16.10;;;;;;;-1.32;50.31;97920.28;5012867;28;20128;-60
2023/02/20 10:11:03;;;;;;;33.25;16.88;;;;;;;-1.18;49.72;97918.59;5033837;28;20116;-62
2023/02/20 10:14:06;;;;;;;31.98;15.73;;;;;;;-1.07;50.12;97921.34;5045416;28;20029;-58
2023/02/20 10:16:42;;;;;;;32.92;17.58;;;;;;;-1.18;49.62;97918.59;5053229;28;20041;-57
2023/02/20 10:19:14;;;;;;;40.83;21.45;;;;;;;-1.35;49.65;97923.09;5053644;28;20056;-63
2023/02/20 10:21:58;;;;;;;38.70;19.65;;;;;;;-1.49;50.04;97920.47;5052379;28;20111;-56
2023/02/20 10:24:45;;;;;;;36.35;18.55;;;;;;;-1.50;51.10;97926.66;5053392;28;20033;-63
2023/02/20 10:27:56;;;;;;;38.58;17.95;;;;;;;-1.45;50.55;97919.34;5039481;28;20163;-64
2023/02/20 10:30:35;;;;;;;34.90;17.48;;;;;;;-1.47;50.01;97926.47;5036486;28;20087;-62
2023/02/20 10:33:32;;;;;;;37.83;18.38;;;;;;;-1.56;50.26;97920.03;5053099;28;20052;-70
2023/02/20 10:36:22;;;;;;;36.67;17.05;;;;;;;-1.45;49.44;97919.34;5053612;28;20065;-66
2023/02/20 10:38:57;;;;;;;31.30;17.67;;;;;;;-1.73;49.12;97889.56;5051214;28;20041;-55
2023/02/20 10:41:35;;;;;;;35.35;18.10;;;;;;;-1.61;49.35;97915.06;5050830;28;20048;-58
2023/02/20 10:44:07;;;;;;;35.00;17.30;;;;;;;-1.65;49.59;97918.81;5049844;28;20116;-65
2023/02/20 10:46:43;;;;;;;32.95;16.95;;;;;;;-1.55;49.95;97918.25;5049771;28;20036;-58
2023/02/20 10:49:14;;;;;;;31.67;16.35;;;;;;;-1.46;49.33;97915.88;5042141;28;20113;-58
2023/02/20 10:51:47;;;;;;;29.98;15.50;;;;;;;-1.45;48.93;97914.94;5030831;28;20037;-58
2023/02/20 10:54:24;;;;;;;28.08;15.85;;;;;;;-1.49;48.83;97921.34;5030677;28;20025;-57
2023/02/20 10:57:06;;;;;;;29.92;16.42;;;;;;;-1.51;49.47;97919.72;5032908;28;20456;-54
2023/02/20 10:59:44;;;;;;;31.75;16.73;;;;;;;-1.41;49.60;97923.50;5048056;28;20455;-60
2023/02/20 11:02:18;;;;;;;38.75;18.08;;;;;;;-1.28;49.48;97923.56;5051845;28;20060;-56
2023/02/20 11:04:52;;;;;;;36.85;17.20;;;;;;;-1.22;49.59;97917.06;5037687;28;20033;-57
2023/02/20 11:07:18;;;;;;;32.88;14.90;;;;;;;-1.11;48.08;97905.88;5032332;28;20025;-60
2023/02/20 11:09:44;;;;;;;34.47;16.00;;;;;;;-1.61;49.18;97919.44;5039888;28;20018;-58
2023/02/20 11:12:40;;;;;;;36.03;17.60;;;;;;;-2.20;51.06;97912.50;5032833;28;20040;-59
2023/02/20 11:15:08;;;;;;;;;;;;;;;-2.23;51.14;97917.91;5029816;28;20064;-54
2023/02/20 11:17:36;;;;;;;32.50;16.88;;;;;;;-2.39;51.57;97917.97;5032463;28;19920;-58
2023/02/20 11:20:03;;;;;;;37.13;17.08;;;;;;;-2.38;52.16;97914.44;5031920;28;20095;-65
2023/02/20 11:22:47;;;;;;;35.35;17.30;;;;;;;-2.41;51.97;97889.22;5032690;28;20040;-57
2023/02/20 11:25:16;;;;;;;32.40;17.05;;;;;;;-2.13;50.96;97915.59;5032217;28;20156;-56
2023/02/20 11:27:42;;;;;;;31.33;15.93;;;;;;;-2.16;51.25;97916.63;5032349;28;20448;-54
2023/02/20 11:30:26;;;;;;;30.80;15.70;;;;;;;-2.00;50.93;97918.34;5048562;28;20040;-55
2023/02/20 11:33:01;;;;;;;30.40;16.55;;;;;;;-2.07;49.96;97929.16;5051444;28;20044;-57
2023/02/20 11:35:32;;;;;;;33.55;15.45;;;;;;;-2.13;50.41;97926.91;5033012;28;20076;-54
2023/02/20 11:38:22;;;;;;;33.95;16.30;;;;;;;-2.03;51.26;97925.44;5032211;28;20491;-56
2023/02/20 11:41:01;;;;;;;27.52;14.80;;;;;;;-2.05;50.58;97916.84;5032110;28;20388;-56
2023/02/20 11:43:27;;;;;;;27.98;14.45;;;;;;;-2.33;50.36;97891.41;5034401;28;20367;-58
2023/02/20 11:46:10;;;;;;;33.20;16.27;;;;;;;-2.06;50.43;97935.25;5049193;28;20036;-55